Time;durP1;ratioP1;P1;durP2;ratioP2;P2;SDS_P1;SDS_P2;PMS_P1;PMS_P2;Temp;Humidity;BMP_temperature;BMP_pressure;BME280_temperature;BME280_humidity;BME280_pressure;Samples;Min_cycle;Max_cycle;Signal;HPM_P1;HPM_P2
2022/07/21 00:04:36;;;;;;;4.28;1.85;;;;;;;;;;10442647;28;20225;-74
2022/07/21 00:09:37;;;;;;;2.97;2.05;;;;;;;;;;10446069;28;20189;-73
2022/07/21 00:14:38;;;;;;;5.50;1.77;;;;;;;;;;10446194;28;20801;-73
2022/07/21 00:19:39;;;;;;;1.80;1.70;;;;;;;;;;10445093;28;20585;-73
2022/07/21 00:24:40;;;;;;;2.90;1.80;;;;;;;;;;10452584;28;20285;-73
2022/07/21 00:29:41;;;;;;;2.78;2.20;;;;;;;;;;10449824;28;20182;-73
2022/07/21 00:34:43;;;;;;;8.13;5.00;;;;;;;;;;10443201;28;20650;-73
2022/07/21 00:39:45;;;;;;;8.77;6.53;;;;;;;;;;10444294;28;20671;-73
2022/07/21 00:44:46;;;;;;;12.60;10.93;;;;;;;;;;10444345;28;20195;-73
2022/07/21 00:49:50;;;;;;;15.60;12.60;;;;;;;;;;10440705;28;20198;-74
2022/07/21 00:54:51;;;;;;;17.45;12.75;;;;;;;;;;10445230;28;20628;-73
2022/07/21 00:59:52;;;;;;;15.25;13.02;;;;;;;;;;10461540;28;20285;-73
2022/07/21 01:04:53;;;;;;;15.63;13.10;;;;;;;;;;10454679;28;20210;-74
2022/07/21 01:09:56;;;;;;;18.63;13.50;;;;;;;;;;10452467;28;20253;-73
2022/07/21 01:14:57;;;;;;;15.35;12.18;;;;;;;;;;10446580;28;20628;-74
2022/07/21 01:19:59;;;;;;;15.23;12.32;;;;;;;;;;10447894;28;20198;-74
2022/07/21 01:25:00;;;;;;;18.98;12.55;;;;;;;;;;10445907;28;20191;-74
2022/07/21 01:30:01;;;;;;;13.60;12.32;;;;;;;;;;10448661;28;20195;-74
2022/07/21 01:35:04;;;;;;;12.38;10.63;;;;;;;;;;10448867;28;20230;-74
2022/07/21 01:45:27;;;;;;;14.10;10.82;;;;;;;;;;10449145;28;20647;-73
2022/07/21 01:50:28;;;;;;;12.57;10.05;;;;;;;;;;10450897;28;20217;-74
2022/07/21 01:55:30;;;;;;;10.43;9.45;;;;;;;;;;10446986;28;20215;-74
2022/07/21 02:00:31;;;;;;;10.27;9.27;;;;;;;;;;10449256;28;20997;-74
2022/07/21 02:05:32;;;;;;;9.98;9.05;;;;;;;;;;10435537;28;20175;-75
2022/07/21 02:10:35;;;;;;;9.10;8.40;;;;;;;;;;10445592;28;20187;-74
2022/07/21 02:15:36;;;;;;;11.43;8.30;;;;;;;;;;10447240;28;20222;-74
2022/07/21 02:20:37;;;;;;;8.80;8.10;;;;;;;;;;10444191;28;20692;-76
2022/07/21 02:25:38;;;;;;;9.27;7.78;;;;;;;;;;10443774;28;20186;-74
2022/07/21 02:30:39;;;;;;;9.50;7.72;;;;;;;;;;10445190;28;20377;-75
2022/07/21 02:35:40;;;;;;;8.27;7.60;;;;;;;;;;10446157;28;20198;-73
2022/07/21 02:40:42;;;;;;;10.00;7.35;;;;;;;;;;10445404;28;20210;-72
2022/07/21 02:45:44;;;;;;;10.60;8.25;;;;;;;;;;10453555;28;20179;-73
2022/07/21 02:50:45;;;;;;;13.90;7.78;;;;;;;;;;10451781;28;20281;-74
2022/07/21 02:55:50;;;;;;;7.78;7.05;;;;;;;;;;10449270;28;20232;-75
2022/07/21 03:00:56;;;;;;;7.20;6.60;;;;;;;;;;10444728;28;20819;-74
2022/07/21 03:05:57;;;;;;;8.27;7.05;;;;;;;;;;10455204;28;20211;-75
2022/07/21 03:10:58;;;;;;;6.85;6.25;;;;;;;;;;10447302;28;20229;-74
2022/07/21 03:15:59;;;;;;;6.53;5.93;;;;;;;;;;10449055;28;20252;-76
2022/07/21 03:21:00;;;;;;;6.63;5.90;;;;;;;;;;10449338;28;20234;-76
2022/07/21 03:26:01;;;;;;;6.35;5.85;;;;;;;;;;10449476;28;20186;-74
2022/07/21 03:31:02;;;;;;;12.18;6.50;;;;;;;;;;10447647;28;20219;-75
2022/07/21 03:36:03;;;;;;;7.75;5.70;;;;;;;;;;10455477;28;20693;-73
2022/07/21 03:41:04;;;;;;;8.00;6.45;;;;;;;;;;10456363;28;20229;-74
2022/07/21 03:46:05;;;;;;;6.25;5.65;;;;;;;;;;10446972;28;20209;-75
2022/07/21 03:51:06;;;;;;;8.68;5.88;;;;;;;;;;10447376;28;20217;-74
2022/07/21 03:56:08;;;;;;;7.65;5.13;;;;;;;;;;10444764;28;20213;-74
2022/07/21 04:01:09;;;;;;;7.57;5.82;;;;;;;;;;10443111;28;20219;-73
2022/07/21 04:06:10;;;;;;;6.70;6.10;;;;;;;;;;10445811;28;20190;-72
2022/07/21 04:11:12;;;;;;;7.55;6.40;;;;;;;;;;10441722;28;20195;-72
2022/07/21 04:16:13;;;;;;;6.13;5.80;;;;;;;;;;10438846;28;20207;-72
2022/07/21 04:21:14;;;;;;;9.57;6.50;;;;;;;;;;10442607;28;20198;-73
2022/07/21 04:26:15;;;;;;;7.05;6.07;;;;;;;;;;10460215;28;20190;-73
2022/07/21 04:31:16;;;;;;;7.53;6.82;;;;;;;;;;10441337;28;20777;-74
2022/07/21 04:36:17;;;;;;;6.65;6.00;;;;;;;;;;10446637;28;20681;-73
2022/07/21 04:41:18;;;;;;;7.05;6.53;;;;;;;;;;10449261;28;20179;-72
2022/07/21 04:46:19;;;;;;;8.85;5.63;;;;;;;;;;10448530;28;20650;-72
2022/07/21 04:51:21;;;;;;;6.88;6.15;;;;;;;;;;10455287;28;20202;-72
2022/07/21 04:56:22;;;;;;;7.22;6.13;;;;;;;;;;10454714;28;20601;-73
2022/07/21 05:01:23;;;;;;;10.10;6.20;;;;;;;;;;10462894;28;20260;-73
2022/07/21 05:06:25;;;;;;;7.07;6.65;;;;;;;;;;10449448;28;20187;-73
2022/07/21 05:11:26;;;;;;;8.50;6.53;;;;;;;;;;10446020;28;20730;-72
2022/07/21 05:16:27;;;;;;;10.50;6.72;;;;;;;;;;10446962;28;20796;-72
2022/07/21 05:21:28;;;;;;;8.85;5.97;;;;;;;;;;10447104;28;20719;-72
2022/07/21 05:26:29;;;;;;;7.75;5.90;;;;;;;;;;10448258;28;20223;-72
2022/07/21 05:31:30;;;;;;;7.32;6.40;;;;;;;;;;10453790;28;20280;-72
2022/07/21 05:36:31;;;;;;;7.90;5.97;;;;;;;;;;10459684;28;20222;-73
2022/07/21 05:41:32;;;;;;;7.07;6.47;;;;;;;;;;10455485;28;20638;-74
2022/07/21 05:46:33;;;;;;;6.40;5.90;;;;;;;;;;10447686;28;20621;-73
2022/07/21 05:51:34;;;;;;;6.50;5.85;;;;;;;;;;10447124;28;20202;-72
2022/07/21 05:56:35;;;;;;;7.18;6.47;;;;;;;;;;10446107;28;20297;-71
2022/07/21 06:01:36;;;;;;;6.80;6.10;;;;;;;;;;10444160;28;20273;-72
2022/07/21 06:06:37;;;;;;;6.93;5.57;;;;;;;;;;10443978;28;20182;-72
2022/07/21 06:11:39;;;;;;;6.63;6.03;;;;;;;;;;10446645;28;20209;-72
2022/07/21 06:16:40;;;;;;;7.53;6.82;;;;;;;;;;10446135;28;20206;-72
2022/07/21 06:21:41;;;;;;;11.48;5.53;;;;;;;;;;10445078;28;20211;-72
2022/07/21 06:26:42;;;;;;;6.97;6.45;;;;;;;;;;10443589;28;20175;-72
2022/07/21 06:31:43;;;;;;;16.27;7.43;;;;;;;;;;10444635;28;20725;-73
2022/07/21 06:36:44;;;;;;;14.52;7.30;;;;;;;;;;10450998;28;20217;-72
2022/07/21 06:41:45;;;;;;;12.02;7.20;;;;;;;;;;10457706;28;20182;-72
2022/07/21 06:46:47;;;;;;;10.55;7.00;;;;;;;;;;10449253;28;20183;-72
2022/07/21 06:51:48;;;;;;;8.02;7.22;;;;;;;;;;10445823;28;20597;-73
2022/07/21 06:56:49;;;;;;;16.30;7.57;;;;;;;;;;10453509;28;20267;-72
2022/07/21 07:01:50;;;;;;;8.85;7.35;;;;;;;;;;10448522;28;20722;-73
2022/07/21 07:06:53;;;;;;;7.20;6.70;;;;;;;;;;10452818;28;20218;-73
2022/07/21 07:12:02;;;;;;;9.65;7.25;;;;;;;;;;10445985;28;20193;-72
2022/07/21 07:17:04;;;;;;;12.60;6.50;;;;;;;;;;10450565;28;20216;-72
2022/07/21 07:22:05;;;;;;;11.82;6.97;;;;;;;;;;10453854;28;20676;-73
2022/07/21 07:27:06;;;;;;;6.97;6.43;;;;;;;;;;10431695;28;20202;-73
2022/07/21 07:32:07;;;;;;;8.88;5.88;;;;;;;;;;10442789;28;20221;-73
2022/07/21 07:37:08;;;;;;;11.23;5.88;;;;;;;;;;10441146;28;20207;-72
2022/07/21 07:42:09;;;;;;;6.60;5.72;;;;;;;;;;10443195;28;20579;-72
2022/07/21 07:47:12;;;;;;;7.88;6.10;;;;;;;;;;10442571;28;20219;-72
2022/07/21 07:52:13;;;;;;;6.82;5.45;;;;;;;;;;10453365;28;20297;-73
2022/07/21 07:57:14;;;;;;;7.10;5.25;;;;;;;;;;10439974;28;20206;-72
2022/07/21 08:02:16;;;;;;;6.15;5.63;;;;;;;;;;10443620;28;20215;-74
2022/07/21 08:07:17;;;;;;;7.65;5.88;;;;;;;;;;10440918;28;20183;-73
2022/07/21 08:12:18;;;;;;;7.50;5.10;;;;;;;;;;10439384;28;20182;-72
2022/07/21 08:17:19;;;;;;;8.00;5.50;;;;;;;;;;10456442;28;20210;-73
2022/07/21 08:22:21;;;;;;;5.70;4.78;;;;;;;;;;10436863;28;20187;-72
2022/07/21 08:27:22;;;;;;;5.22;4.80;;;;;;;;;;10431336;28;20186;-73
2022/07/21 08:32:23;;;;;;;5.03;4.82;;;;;;;;;;10439011;28;20234;-73
2022/07/21 08:37:24;;;;;;;4.82;4.53;;;;;;;;;;10449516;28;20210;-72
2022/07/21 08:42:26;;;;;;;4.65;4.38;;;;;;;;;;10442995;28;20215;-72
2022/07/21 08:47:28;;;;;;;5.13;4.63;;;;;;;;;;10445431;28;20202;-73
2022/07/21 08:52:29;;;;;;;5.30;4.90;;;;;;;;;;10426549;28;20213;-72
2022/07/21 08:57:30;;;;;;;5.22;4.68;;;;;;;;;;10447292;28;20218;-73
2022/07/21 09:02:33;;;;;;;4.93;4.50;;;;;;;;;;10446313;28;20238;-73
2022/07/21 09:07:57;;;;;;;3.97;3.78;;;;;;;;;;10429186;28;20240;-73
2022/07/21 09:13:04;;;;;;;4.13;3.88;;;;;;;;;;10439855;28;20670;-72
2022/07/21 09:18:13;;;;;;;3.90;3.72;;;;;;;;;;10439821;28;20214;-73
2022/07/21 09:23:15;;;;;;;3.55;3.35;;;;;;;;;;10446575;28;20210;-72
2022/07/21 09:28:23;;;;;;;4.63;3.40;;;;;;;;;;10452633;28;20175;-73
2022/07/21 09:33:28;;;;;;;3.60;3.40;;;;;;;;;;10454127;28;20219;-73
2022/07/21 09:38:30;;;;;;;3.55;3.28;;;;;;;;;;10446012;28;20187;-72
2022/07/21 09:43:32;;;;;;;2.83;2.72;;;;;;;;;;10448324;28;20195;-73
2022/07/21 09:48:34;;;;;;;3.35;2.30;;;;;;;;;;10447732;28;20210;-71
2022/07/21 09:53:48;;;;;;;2.75;2.65;;;;;;;;;;10449228;28;20210;-74
2022/07/21 09:58:51;;;;;;;3.05;2.88;;;;;;;;;;10455160;28;20630;-72
2022/07/21 10:03:53;;;;;;;2.65;2.60;;;;;;;;;;10456502;28;20214;-73
2022/07/21 10:08:55;;;;;;;2.80;2.60;;;;;;;;;;10445323;28;20179;-73
2022/07/21 10:13:56;;;;;;;3.35;3.25;;;;;;;;;;10445306;28;20788;-73
2022/07/21 10:19:06;;;;;;;3.22;2.90;;;;;;;;;;10445632;28;20797;-73
2022/07/21 10:24:09;;;;;;;3.70;3.42;;;;;;;;;;10444737;28;20184;-74
2022/07/21 10:29:10;;;;;;;3.33;3.13;;;;;;;;;;10460254;28;20362;-73
2022/07/21 10:34:11;;;;;;;4.13;3.90;;;;;;;;;;10444279;28;20708;-73
2022/07/21 10:39:24;;;;;;;4.38;3.70;;;;;;;;;;10447338;28;20183;-73
2022/07/21 10:44:27;;;;;;;3.90;3.80;;;;;;;;;;10445808;28;20260;-73
2022/07/21 10:49:44;;;;;;;3.72;3.60;;;;;;;;;;10447039;28;20210;-72
2022/07/21 10:55:05;;;;;;;4.07;3.95;;;;;;;;;;10446452;28;20239;-73
2022/07/21 11:00:17;;;;;;;3.92;3.75;;;;;;;;;;10432125;28;20231;-73
2022/07/21 11:05:18;;;;;;;4.40;4.05;;;;;;;;;;10441073;28;20306;-74
2022/07/21 11:10:21;;;;;;;3.63;3.45;;;;;;;;;;10443152;28;20199;-75
2022/07/21 11:15:41;;;;;;;4.13;3.78;;;;;;;;;;10444306;28;20272;-72
2022/07/21 11:20:42;;;;;;;4.18;3.90;;;;;;;;;;10428753;28;20303;-74
2022/07/21 11:25:44;;;;;;;3.55;2.58;;;;;;;;;;10437707;28;20563;-73
2022/07/21 11:30:45;;;;;;;5.57;3.58;;;;;;;;;;10433657;28;20831;-71
2022/07/21 11:35:46;;;;;;;4.95;3.25;;;;;;;;;;10433766;28;20233;-73
2022/07/21 11:40:47;;;;;;;2.65;2.33;;;;;;;;;;10435670;28;20213;-71
2022/07/21 11:45:52;;;;;;;4.03;3.30;;;;;;;;;;10423846;28;20186;-72
2022/07/21 11:51:03;;;;;;;3.25;3.03;;;;;;;;;;10430426;28;20198;-73
2022/07/21 11:56:13;;;;;;;5.22;2.88;;;;;;;;;;10437947;28;20292;-72
2022/07/21 12:01:14;;;;;;;5.93;3.05;;;;;;;;;;10438973;28;20206;-73
2022/07/21 12:06:16;;;;;;;3.00;2.95;;;;;;;;;;10431707;28;20234;-72
2022/07/21 12:11:17;;;;;;;3.30;3.00;;;;;;;;;;10433815;28;20187;-71
2022/07/21 12:16:18;;;;;;;4.47;4.28;;;;;;;;;;10437624;28;20584;-73
2022/07/21 12:21:19;;;;;;;4.28;3.90;;;;;;;;;;10433585;28;20237;-72
2022/07/21 12:26:24;;;;;;;3.63;3.58;;;;;;;;;;10438511;28;20191;-71
2022/07/21 12:31:25;;;;;;;4.97;4.60;;;;;;;;;;10436435;28;20229;-73
2022/07/21 12:36:27;;;;;;;5.70;4.03;;;;;;;;;;10430094;28;20202;-71
2022/07/21 12:41:28;;;;;;;5.03;4.07;;;;;;;;;;10438136;28;20274;-73
2022/07/21 12:46:30;;;;;;;3.88;3.60;;;;;;;;;;10439656;28;20218;-74
2022/07/21 12:51:31;;;;;;;3.55;3.45;;;;;;;;;;10435451;28;20329;-72
2022/07/21 12:56:33;;;;;;;3.70;3.53;;;;;;;;;;10439217;28;20309;-74
2022/07/21 13:01:34;;;;;;;3.33;3.22;;;;;;;;;;10438955;28;20210;-73
2022/07/21 13:06:36;;;;;;;3.00;2.78;;;;;;;;;;10439567;28;20184;-74
2022/07/21 13:11:37;;;;;;;3.17;3.08;;;;;;;;;;10436803;28;20221;-74
2022/07/21 13:16:38;;;;;;;3.22;3.10;;;;;;;;;;10437923;28;20207;-72
2022/07/21 13:21:40;;;;;;;3.35;3.25;;;;;;;;;;10455093;28;20260;-75
2022/07/21 13:26:41;;;;;;;2.58;2.58;;;;;;;;;;10445930;28;20570;-74
2022/07/21 13:31:42;;;;;;;2.90;2.72;;;;;;;;;;10444859;28;20222;-74
2022/07/21 13:36:43;;;;;;;2.15;2.05;;;;;;;;;;10441482;28;20353;-76
2022/07/21 13:41:44;;;;;;;2.35;2.20;;;;;;;;;;10437813;28;20339;-74
2022/07/21 13:46:45;;;;;;;1.88;1.88;;;;;;;;;;10436447;28;20209;-74
2022/07/21 13:51:47;;;;;;;2.35;2.30;;;;;;;;;;10431682;28;20293;-74
2022/07/21 13:56:48;;;;;;;4.28;2.40;;;;;;;;;;10429449;28;20575;-74
2022/07/21 14:01:49;;;;;;;2.17;2.17;;;;;;;;;;10440984;28;20324;-72
2022/07/21 14:06:52;;;;;;;2.53;2.53;;;;;;;;;;10432506;28;20178;-75
2022/07/21 14:11:53;;;;;;;4.20;2.38;;;;;;;;;;10431624;28;20183;-73
2022/07/21 14:16:54;;;;;;;2.33;2.33;;;;;;;;;;10447137;28;20214;-74
2022/07/21 14:21:55;;;;;;;2.10;2.00;;;;;;;;;;10439247;28;20186;-74
2022/07/21 14:26:56;;;;;;;4.40;2.35;;;;;;;;;;10444924;28;20186;-74
2022/07/21 14:31:57;;;;;;;2.13;2.13;;;;;;;;;;10438779;28;20240;-75
2022/07/21 14:36:58;;;;;;;2.30;2.30;;;;;;;;;;10443040;28;20609;-74
2022/07/21 14:41:59;;;;;;;2.78;2.50;;;;;;;;;;10448559;28;20292;-73
2022/07/21 14:47:01;;;;;;;4.00;2.05;;;;;;;;;;10444142;28;20233;-75
2022/07/21 14:52:05;;;;;;;2.63;2.63;;;;;;;;;;10441467;28;20183;-73
2022/07/21 14:57:07;;;;;;;2.30;2.20;;;;;;;;;;10464297;28;20206;-74
2022/07/21 15:02:08;;;;;;;2.72;1.98;;;;;;;;;;10449569;28;20226;-72
2022/07/21 15:07:09;;;;;;;2.20;2.10;;;;;;;;;;10443360;28;20298;-75
2022/07/21 15:12:10;;;;;;;2.15;2.05;;;;;;;;;;10435818;28;20936;-67
2022/07/21 15:17:12;;;;;;;2.35;2.35;;;;;;;;;;10439633;28;20210;-74
2022/07/21 15:22:13;;;;;;;4.18;2.47;;;;;;;;;;10437557;28;20567;-73
2022/07/21 15:27:14;;;;;;;2.30;2.20;;;;;;;;;;10443313;28;20187;-74
2022/07/21 15:32:15;;;;;;;2.28;2.28;;;;;;;;;;10437217;28;20230;-76
2022/07/21 15:37:16;;;;;;;5.65;2.17;;;;;;;;;;10442165;28;20749;-75
2022/07/21 15:42:18;;;;;;;2.65;2.45;;;;;;;;;;10439679;28;20179;-74
2022/07/21 15:47:19;;;;;;;2.08;2.03;;;;;;;;;;10451297;28;20580;-73
2022/07/21 15:52:20;;;;;;;2.33;2.00;;;;;;;;;;10443458;28;20175;-73
2022/07/21 15:57:21;;;;;;;2.40;2.30;;;;;;;;;;10445570;28;20211;-73
2022/07/21 16:02:22;;;;;;;2.17;2.05;;;;;;;;;;10439760;28;20226;-73
2022/07/21 16:07:23;;;;;;;5.32;1.90;;;;;;;;;;10442772;28;20680;-73
2022/07/21 16:12:24;;;;;;;2.13;2.03;;;;;;;;;;10448469;28;20191;-76
2022/07/21 16:17:25;;;;;;;2.35;1.80;;;;;;;;;;10446035;28;20220;-76
2022/07/21 16:22:26;;;;;;;1.80;1.80;;;;;;;;;;10447210;28;20186;-75
2022/07/21 16:27:27;;;;;;;1.83;1.80;;;;;;;;;;10435327;28;20194;-70
2022/07/21 16:32:28;;;;;;;1.27;1.27;;;;;;;;;;10439975;28;20230;-71
2022/07/21 16:37:29;;;;;;;1.30;1.30;;;;;;;;;;10446436;28;20297;-71
2022/07/21 16:42:30;;;;;;;1.20;1.15;;;;;;;;;;10447498;28;20187;-77
2022/07/21 16:47:31;;;;;;;3.97;1.80;;;;;;;;;;10446736;28;20198;-71
2022/07/21 16:52:33;;;;;;;3.50;2.97;;;;;;;;;;10445217;28;20222;-74
2022/07/21 16:57:34;;;;;;;1.30;1.30;;;;;;;;;;10439459;28;21032;-74
2022/07/21 17:02:35;;;;;;;1.63;1.52;;;;;;;;;;10446057;28;20241;-74
2022/07/21 17:07:36;;;;;;;1.60;1.60;;;;;;;;;;10444455;28;20237;-74
2022/07/21 17:12:38;;;;;;;1.50;1.50;;;;;;;;;;10443738;28;20183;-77
2022/07/21 17:17:39;;;;;;;1.70;1.70;;;;;;;;;;10456857;28;20225;-74
2022/07/21 17:22:40;;;;;;;1.88;1.70;;;;;;;;;;10459478;28;20179;-77
2022/07/21 17:27:41;;;;;;;4.53;2.08;;;;;;;;;;10459167;28;20708;-74
2022/07/21 17:32:43;;;;;;;1.83;1.73;;;;;;;;;;10453965;28;20226;-75
2022/07/21 17:37:44;;;;;;;2.58;1.60;;;;;;;;;;10436245;28;20217;-74
2022/07/21 17:42:45;;;;;;;1.35;1.35;;;;;;;;;;10441717;28;20183;-81
2022/07/21 17:47:46;;;;;;;1.25;1.25;;;;;;;;;;10445804;28;20285;-77
2022/07/21 17:52:47;;;;;;;1.50;1.50;;;;;;;;;;10457958;28;20186;-78
2022/07/21 18:03:08;;;;;;;3.00;1.40;;;;;;;;;;10455359;28;20213;-79
2022/07/21 18:08:12;;;;;;;1.20;1.20;;;;;;;;;;10458851;28;20179;-77
2022/07/21 18:13:14;;;;;;;1.20;1.20;;;;;;;;;;10445720;28;20179;-76
2022/07/21 18:18:15;;;;;;;2.05;1.60;;;;;;;;;;10441142;28;20207;-75
2022/07/21 18:23:16;;;;;;;1.73;1.67;;;;;;;;;;10442272;28;20675;-75
2022/07/21 18:28:17;;;;;;;1.40;1.30;;;;;;;;;;10443691;28;20189;-72
2022/07/21 18:33:18;;;;;;;1.30;1.30;;;;;;;;;;10467458;28;20562;-74
2022/07/21 18:38:19;;;;;;;1.60;1.52;;;;;;;;;;10447575;28;20329;-77
2022/07/21 18:43:20;;;;;;;2.35;1.58;;;;;;;;;;10460141;28;20266;-77
2022/07/21 18:48:21;;;;;;;1.60;1.60;;;;;;;;;;10457454;28;20203;-77
2022/07/21 18:53:22;;;;;;;1.45;1.45;;;;;;;;;;10455260;28;20183;-77
2022/07/21 18:58:23;;;;;;;1.55;1.55;;;;;;;;;;10452957;28;20217;-77
2022/07/21 19:03:24;;;;;;;1.83;1.73;;;;;;;;;;10455197;28;20214;-77
2022/07/21 19:08:26;;;;;;;1.48;1.48;;;;;;;;;;10451564;28;20185;-79
2022/07/21 19:13:27;;;;;;;3.53;1.80;;;;;;;;;;10448663;28;20179;-78
2022/07/21 19:18:28;;;;;;;1.60;1.60;;;;;;;;;;10451510;28;20210;-78
2022/07/21 19:23:29;;;;;;;4.30;1.70;;;;;;;;;;10449091;28;20195;-77
2022/07/21 19:28:30;;;;;;;1.90;1.90;;;;;;;;;;10465674;28;20244;-76
2022/07/21 19:33:31;;;;;;;1.92;1.77;;;;;;;;;;10446125;28;20701;-76
2022/07/21 19:38:32;;;;;;;3.47;1.40;;;;;;;;;;10440140;28;20694;-79
2022/07/21 19:43:33;;;;;;;2.38;1.75;;;;;;;;;;10439888;28;20179;-78
2022/07/21 19:48:34;;;;;;;3.55;2.30;;;;;;;;;;10433845;28;20203;-77
2022/07/21 19:53:35;;;;;;;2.17;1.90;;;;;;;;;;10442212;28;20193;-78
2022/07/21 19:58:37;;;;;;;2.55;2.45;;;;;;;;;;10451564;28;20661;-75
2022/07/21 20:03:38;;;;;;;2.70;2.60;;;;;;;;;;10404738;28;20245;-74
2022/07/21 20:08:39;;;;;;;2.47;2.38;;;;;;;;;;10440450;28;20694;-71
2022/07/21 20:13:40;;;;;;;2.83;2.55;;;;;;;;;;10445616;28;20284;-73
2022/07/21 20:18:41;;;;;;;3.42;2.70;;;;;;;;;;10441140;28;20206;-73
2022/07/21 20:23:43;;;;;;;4.60;2.80;;;;;;;;;;10445161;28;20307;-73
2022/07/21 20:28:44;;;;;;;2.97;2.78;;;;;;;;;;10448840;28;20179;-73
2022/07/21 20:33:45;;;;;;;3.85;2.50;;;;;;;;;;10457890;28;20225;-73
2022/07/21 20:38:46;;;;;;;2.42;2.33;;;;;;;;;;10456836;28;20219;-74
2022/07/21 20:43:47;;;;;;;2.40;2.38;;;;;;;;;;10449803;28;20273;-73
2022/07/21 20:48:48;;;;;;;2.30;2.25;;;;;;;;;;10453229;28;20199;-73
2022/07/21 20:53:49;;;;;;;2.55;2.53;;;;;;;;;;10447114;28;20182;-73
2022/07/21 20:58:50;;;;;;;3.10;2.90;;;;;;;;;;10447682;28;20194;-74
2022/07/21 21:03:51;;;;;;;2.90;2.70;;;;;;;;;;10460083;28;21024;-74
2022/07/21 21:08:52;;;;;;;2.35;2.33;;;;;;;;;;10449605;28;20194;-75
2022/07/21 21:13:53;;;;;;;2.80;2.70;;;;;;;;;;10448704;28;20186;-76
2022/07/21 21:18:54;;;;;;;3.13;3.03;;;;;;;;;;10456000;28;20195;-75
2022/07/21 21:23:55;;;;;;;3.50;3.38;;;;;;;;;;10457433;28;20569;-75
2022/07/21 21:28:57;;;;;;;3.42;3.22;;;;;;;;;;10459754;28;20649;-75
2022/07/21 21:33:58;;;;;;;2.33;2.22;;;;;;;;;;10456441;28;20223;-74
2022/07/21 21:38:59;;;;;;;3.17;2.97;;;;;;;;;;10455318;28;20179;-75
2022/07/21 21:44:00;;;;;;;3.05;2.95;;;;;;;;;;10455084;28;20187;-75
2022/07/21 21:49:01;;;;;;;3.55;3.38;;;;;;;;;;10450333;28;20206;-74
2022/07/21 21:54:02;;;;;;;3.50;3.40;;;;;;;;;;10436304;28;20199;-75
2022/07/21 21:59:03;;;;;;;3.67;3.50;;;;;;;;;;10446446;28;20187;-76
2022/07/21 22:04:04;;;;;;;3.55;3.38;;;;;;;;;;10440049;28;20239;-75
2022/07/21 22:09:06;;;;;;;5.00;4.18;;;;;;;;;;10453700;28;20663;-74
2022/07/21 22:14:07;;;;;;;3.90;3.70;;;;;;;;;;10446663;28;20268;-75
2022/07/21 22:19:08;;;;;;;3.80;3.70;;;;;;;;;;10433904;28;20353;-75
2022/07/21 22:24:09;;;;;;;5.05;3.97;;;;;;;;;;10436799;28;20190;-74
2022/07/21 22:29:10;;;;;;;3.97;3.78;;;;;;;;;;10439503;28;20271;-74
2022/07/21 22:34:11;;;;;;;3.63;3.13;;;;;;;;;;10449599;28;20222;-74
2022/07/21 22:39:12;;;;;;;3.53;3.42;;;;;;;;;;10448622;28;20175;-74
2022/07/21 22:44:13;;;;;;;3.55;3.40;;;;;;;;;;10454966;28;20627;-74
2022/07/21 22:49:14;;;;;;;3.83;3.75;;;;;;;;;;10448168;28;20289;-73
2022/07/21 22:54:15;;;;;;;4.28;4.10;;;;;;;;;;10451434;28;20213;-73
2022/07/21 22:59:16;;;;;;;4.72;4.47;;;;;;;;;;10446872;28;20212;-73
2022/07/21 23:04:17;;;;;;;4.43;4.28;;;;;;;;;;10447334;28;20301;-74
2022/07/21 23:09:19;;;;;;;3.97;3.88;;;;;;;;;;10445073;28;20189;-74
2022/07/21 23:14:20;;;;;;;4.43;4.32;;;;;;;;;;10445177;28;20202;-74
2022/07/21 23:19:21;;;;;;;5.45;5.30;;;;;;;;;;10446877;28;20199;-74
2022/07/21 23:24:22;;;;;;;6.75;6.43;;;;;;;;;;10448510;28;20191;-73
2022/07/21 23:29:23;;;;;;;6.95;6.65;;;;;;;;;;10446803;28;20239;-74
2022/07/21 23:34:24;;;;;;;8.02;7.53;;;;;;;;;;10445620;28;20581;-74
2022/07/21 23:39:25;;;;;;;8.27;7.57;;;;;;;;;;10443704;28;20183;-73
2022/07/21 23:44:26;;;;;;;7.05;6.55;;;;;;;;;;10435532;28;20195;-72
2022/07/21 23:49:27;;;;;;;9.57;8.98;;;;;;;;;;10436829;28;20209;-72
2022/07/21 23:54:28;;;;;;;10.05;9.32;;;;;;;;;;10438546;28;20210;-74
2022/07/21 23:59:29;;;;;;;9.43;8.80;;;;;;;;;;10441050;28;20183;-74
